sensor_id;sensor_type;location;lat;lon;timestamp;P1;durP1;ratioP1;P2;durP2;ratioP2
58661;SDS011;44432;49.786;22.760;2023-02-15T00:01:06;26.80;;;14.10;;
58661;SDS011;44432;49.786;22.760;2023-02-15T00:03:37;23.20;;;13.50;;
58661;SDS011;44432;49.786;22.760;2023-02-15T00:06:08;26.50;;;14.20;;
58661;SDS011;44432;49.786;22.760;2023-02-15T00:08:39;22.70;;;13.50;;
58661;SDS011;44432;49.786;22.760;2023-02-15T00:11:10;25.20;;;13.80;;
58661;SDS011;44432;49.786;22.760;2023-02-15T00:13:43;22.30;;;13.50;;
58661;SDS011;44432;49.786;22.760;2023-02-15T00:16:14;23.50;;;13.40;;
58661;SDS011;44432;49.786;22.760;2023-02-15T00:18:44;23.00;;;12.80;;
58661;SDS011;44432;49.786;22.760;2023-02-15T00:21:15;19.40;;;10.80;;
58661;SDS011;44432;49.786;22.760;2023-02-15T00:23:46;21.50;;;12.00;;
58661;SDS011;44432;49.786;22.760;2023-02-15T00:26:16;20.20;;;11.60;;
58661;SDS011;44432;49.786;22.760;2023-02-15T00:28:47;24.50;;;12.60;;
58661;SDS011;44432;49.786;22.760;2023-02-15T00:31:18;21.90;;;12.40;;
58661;SDS011;44432;49.786;22.760;2023-02-15T00:33:49;21.20;;;12.10;;
58661;SDS011;44432;49.786;22.760;2023-02-15T00:36:20;21.20;;;12.70;;
58661;SDS011;44432;49.786;22.760;2023-02-15T00:38:51;21.90;;;13.10;;
58661;SDS011;44432;49.786;22.760;2023-02-15T00:41:21;20.00;;;12.10;;
58661;SDS011;44432;49.786;22.760;2023-02-15T00:43:53;18.60;;;12.60;;
58661;SDS011;44432;49.786;22.760;2023-02-15T00:46:23;23.00;;;13.20;;
58661;SDS011;44432;49.786;22.760;2023-02-15T00:48:54;20.40;;;12.00;;
58661;SDS011;44432;49.786;22.760;2023-02-15T00:51:25;21.10;;;12.00;;
58661;SDS011;44432;49.786;22.760;2023-02-15T00:53:56;19.40;;;11.10;;
58661;SDS011;44432;49.786;22.760;2023-02-15T00:56:27;20.80;;;11.60;;
58661;SDS011;44432;49.786;22.760;2023-02-15T00:58:58;18.60;;;11.40;;
58661;SDS011;44432;49.786;22.760;2023-02-15T01:01:28;19.60;;;10.70;;
58661;SDS011;44432;49.786;22.760;2023-02-15T01:03:59;16.70;;;10.40;;
58661;SDS011;44432;49.786;22.760;2023-02-15T01:06:30;18.50;;;11.20;;
58661;SDS011;44432;49.786;22.760;2023-02-15T01:09:01;19.00;;;10.50;;
58661;SDS011;44432;49.786;22.760;2023-02-15T01:11:31;17.20;;;11.10;;
58661;SDS011;44432;49.786;22.760;2023-02-15T01:14:06;18.70;;;10.20;;
58661;SDS011;44432;49.786;22.760;2023-02-15T01:16:37;18.60;;;10.00;;
58661;SDS011;44432;49.786;22.760;2023-02-15T01:19:08;18.40;;;11.10;;
58661;SDS011;44432;49.786;22.760;2023-02-15T01:21:38;17.50;;;10.70;;
58661;SDS011;44432;49.786;22.760;2023-02-15T01:24:12;17.10;;;10.00;;
58661;SDS011;44432;49.786;22.760;2023-02-15T01:26:43;16.10;;;11.00;;
58661;SDS011;44432;49.786;22.760;2023-02-15T01:29:13;18.50;;;10.80;;
58661;SDS011;44432;49.786;22.760;2023-02-15T01:31:44;20.50;;;11.30;;
58661;SDS011;44432;49.786;22.760;2023-02-15T01:34:14;17.60;;;10.30;;
58661;SDS011;44432;49.786;22.760;2023-02-15T01:36:45;21.10;;;11.60;;
58661;SDS011;44432;49.786;22.760;2023-02-15T01:39:16;19.90;;;11.30;;
58661;SDS011;44432;49.786;22.760;2023-02-15T01:41:47;21.10;;;11.10;;
58661;SDS011;44432;49.786;22.760;2023-02-15T01:47:20;18.60;;;10.90;;
58661;SDS011;44432;49.786;22.760;2023-02-15T01:49:58;18.70;;;10.90;;
58661;SDS011;44432;49.786;22.760;2023-02-15T01:52:34;18.30;;;10.50;;
58661;SDS011;44432;49.786;22.760;2023-02-15T01:55:06;17.70;;;10.40;;
58661;SDS011;44432;49.786;22.760;2023-02-15T01:57:40;21.40;;;11.10;;
58661;SDS011;44432;49.786;22.760;2023-02-15T02:00:12;19.20;;;10.70;;
58661;SDS011;44432;49.786;22.760;2023-02-15T02:02:45;16.40;;;10.30;;
58661;SDS011;44432;49.786;22.760;2023-02-15T02:05:18;17.80;;;10.50;;
58661;SDS011;44432;49.786;22.760;2023-02-15T02:07:50;16.60;;;10.50;;
58661;SDS011;44432;49.786;22.760;2023-02-15T02:10:23;18.70;;;10.20;;
58661;SDS011;44432;49.786;22.760;2023-02-15T02:12:56;17.30;;;10.20;;
58661;SDS011;44432;49.786;22.760;2023-02-15T02:15:33;17.70;;;10.20;;
58661;SDS011;44432;49.786;22.760;2023-02-15T02:18:13;18.40;;;11.10;;
58661;SDS011;44432;49.786;22.760;2023-02-15T02:21:11;14.40;;;9.60;;
58661;SDS011;44432;49.786;22.760;2023-02-15T02:24:15;18.50;;;11.70;;
58661;SDS011;44432;49.786;22.760;2023-02-15T02:27:14;21.00;;;11.60;;
58661;SDS011;44432;49.786;22.760;2023-02-15T02:29:58;17.30;;;10.30;;
58661;SDS011;44432;49.786;22.760;2023-02-15T02:33:09;16.90;;;10.50;;
58661;SDS011;44432;49.786;22.760;2023-02-15T02:35:56;18.70;;;10.20;;
58661;SDS011;44432;49.786;22.760;2023-02-15T02:38:35;19.20;;;10.70;;
58661;SDS011;44432;49.786;22.760;2023-02-15T02:41:17;17.30;;;9.90;;
58661;SDS011;44432;49.786;22.760;2023-02-15T02:43:57;17.50;;;10.40;;
58661;SDS011;44432;49.786;22.760;2023-02-15T02:46:33;16.90;;;10.30;;
58661;SDS011;44432;49.786;22.760;2023-02-15T02:49:10;15.90;;;10.10;;
58661;SDS011;44432;49.786;22.760;2023-02-15T02:51:41;16.00;;;9.70;;
58661;SDS011;44432;49.786;22.760;2023-02-15T02:54:12;17.40;;;10.70;;
58661;SDS011;44432;49.786;22.760;2023-02-15T02:56:43;18.70;;;10.50;;
58661;SDS011;44432;49.786;22.760;2023-02-15T02:59:17;20.40;;;10.50;;
58661;SDS011;44432;49.786;22.760;2023-02-15T03:04:21;20.70;;;10.20;;
58661;SDS011;44432;49.786;22.760;2023-02-15T03:06:58;18.20;;;10.50;;
58661;SDS011;44432;49.786;22.760;2023-02-15T03:09:35;20.50;;;10.90;;
58661;SDS011;44432;49.786;22.760;2023-02-15T03:12:10;18.70;;;10.90;;
58661;SDS011;44432;49.786;22.760;2023-02-15T03:14:43;17.80;;;9.90;;
58661;SDS011;44432;49.786;22.760;2023-02-15T03:17:17;16.20;;;10.20;;
58661;SDS011;44432;49.786;22.760;2023-02-15T03:19:51;16.40;;;10.20;;
58661;SDS011;44432;49.786;22.760;2023-02-15T03:22:26;18.90;;;11.00;;
58661;SDS011;44432;49.786;22.760;2023-02-15T03:25:04;18.00;;;10.30;;
58661;SDS011;44432;49.786;22.760;2023-02-15T03:27:39;17.90;;;9.90;;
58661;SDS011;44432;49.786;22.760;2023-02-15T03:30:12;16.90;;;10.70;;
58661;SDS011;44432;49.786;22.760;2023-02-15T03:32:47;19.60;;;11.60;;
58661;SDS011;44432;49.786;22.760;2023-02-15T03:35:19;18.50;;;10.50;;
58661;SDS011;44432;49.786;22.760;2023-02-15T03:37:55;19.30;;;10.80;;
58661;SDS011;44432;49.786;22.760;2023-02-15T03:40:29;39.80;;;26.20;;
58661;SDS011;44432;49.786;22.760;2023-02-15T03:43:23;24.70;;;14.30;;
58661;SDS011;44432;49.786;22.760;2023-02-15T03:46:01;18.90;;;11.20;;
58661;SDS011;44432;49.786;22.760;2023-02-15T03:48:42;21.40;;;11.20;;
58661;SDS011;44432;49.786;22.760;2023-02-15T03:51:16;20.00;;;11.80;;
58661;SDS011;44432;49.786;22.760;2023-02-15T03:54:06;19.10;;;10.50;;
58661;SDS011;44432;49.786;22.760;2023-02-15T03:56:39;19.10;;;9.80;;
58661;SDS011;44432;49.786;22.760;2023-02-15T03:59:31;19.20;;;11.10;;
58661;SDS011;44432;49.786;22.760;2023-02-15T04:02:32;17.30;;;10.80;;
58661;SDS011;44432;49.786;22.760;2023-02-15T04:05:07;21.40;;;11.20;;
58661;SDS011;44432;49.786;22.760;2023-02-15T04:07:37;16.90;;;10.30;;
58661;SDS011;44432;49.786;22.760;2023-02-15T04:10:08;18.30;;;11.10;;
58661;SDS011;44432;49.786;22.760;2023-02-15T04:12:57;16.90;;;10.20;;
58661;SDS011;44432;49.786;22.760;2023-02-15T04:15:27;22.20;;;12.60;;
58661;SDS011;44432;49.786;22.760;2023-02-15T04:18:16;20.90;;;11.20;;
58661;SDS011;44432;49.786;22.760;2023-02-15T04:20:46;23.90;;;13.50;;
58661;SDS011;44432;49.786;22.760;2023-02-15T04:23:34;17.60;;;11.50;;
58661;SDS011;44432;49.786;22.760;2023-02-15T04:26:23;20.30;;;11.50;;
58661;SDS011;44432;49.786;22.760;2023-02-15T04:28:53;19.80;;;11.40;;
58661;SDS011;44432;49.786;22.760;2023-02-15T04:31:24;19.70;;;13.10;;
58661;SDS011;44432;49.786;22.760;2023-02-15T04:33:54;20.50;;;11.80;;
58661;SDS011;44432;49.786;22.760;2023-02-15T04:36:25;22.10;;;11.70;;
58661;SDS011;44432;49.786;22.760;2023-02-15T04:38:55;18.50;;;11.00;;
58661;SDS011;44432;49.786;22.760;2023-02-15T04:41:26;19.70;;;12.00;;
58661;SDS011;44432;49.786;22.760;2023-02-15T04:43:57;21.20;;;11.20;;
58661;SDS011;44432;49.786;22.760;2023-02-15T04:46:28;20.30;;;12.20;;
58661;SDS011;44432;49.786;22.760;2023-02-15T04:48:59;23.70;;;12.60;;
58661;SDS011;44432;49.786;22.760;2023-02-15T04:51:29;19.60;;;11.90;;
58661;SDS011;44432;49.786;22.760;2023-02-15T04:54:00;18.80;;;11.10;;
58661;SDS011;44432;49.786;22.760;2023-02-15T04:56:30;18.90;;;11.60;;
58661;SDS011;44432;49.786;22.760;2023-02-15T04:59:02;18.00;;;10.00;;
58661;SDS011;44432;49.786;22.760;2023-02-15T05:01:33;20.50;;;11.40;;
58661;SDS011;44432;49.786;22.760;2023-02-15T05:04:04;21.00;;;12.50;;
58661;SDS011;44432;49.786;22.760;2023-02-15T05:06:34;20.90;;;12.50;;
58661;SDS011;44432;49.786;22.760;2023-02-15T05:09:05;17.60;;;11.70;;
58661;SDS011;44432;49.786;22.760;2023-02-15T05:11:37;24.60;;;13.60;;
58661;SDS011;44432;49.786;22.760;2023-02-15T05:14:08;20.60;;;12.30;;
58661;SDS011;44432;49.786;22.760;2023-02-15T05:16:39;27.40;;;15.20;;
58661;SDS011;44432;49.786;22.760;2023-02-15T05:19:09;25.10;;;16.20;;
58661;SDS011;44432;49.786;22.760;2023-02-15T05:21:40;24.40;;;15.20;;
58661;SDS011;44432;49.786;22.760;2023-02-15T05:24:11;21.20;;;12.70;;
58661;SDS011;44432;49.786;22.760;2023-02-15T05:26:59;24.90;;;14.50;;
58661;SDS011;44432;49.786;22.760;2023-02-15T05:29:48;23.00;;;13.50;;
58661;SDS011;44432;49.786;22.760;2023-02-15T05:32:19;21.60;;;12.30;;
58661;SDS011;44432;49.786;22.760;2023-02-15T05:34:50;21.40;;;13.00;;
58661;SDS011;44432;49.786;22.760;2023-02-15T05:37:21;23.80;;;12.40;;
58661;SDS011;44432;49.786;22.760;2023-02-15T05:39:51;26.20;;;13.00;;
58661;SDS011;44432;49.786;22.760;2023-02-15T05:42:22;28.10;;;14.50;;
58661;SDS011;44432;49.786;22.760;2023-02-15T05:44:53;22.90;;;13.50;;
58661;SDS011;44432;49.786;22.760;2023-02-15T05:47:23;19.40;;;11.70;;
58661;SDS011;44432;49.786;22.760;2023-02-15T05:49:54;22.30;;;11.80;;
58661;SDS011;44432;49.786;22.760;2023-02-15T05:52:25;23.00;;;12.60;;
58661;SDS011;44432;49.786;22.760;2023-02-15T05:54:55;31.00;;;13.00;;
58661;SDS011;44432;49.786;22.760;2023-02-15T05:57:27;24.70;;;13.60;;
58661;SDS011;44432;49.786;22.760;2023-02-15T05:59:59;37.20;;;19.50;;
58661;SDS011;44432;49.786;22.760;2023-02-15T06:05:04;29.30;;;14.50;;
58661;SDS011;44432;49.786;22.760;2023-02-15T06:07:35;25.40;;;13.60;;
58661;SDS011;44432;49.786;22.760;2023-02-15T06:10:07;29.20;;;12.20;;
58661;SDS011;44432;49.786;22.760;2023-02-15T06:12:38;31.90;;;13.30;;
58661;SDS011;44432;49.786;22.760;2023-02-15T06:15:09;23.20;;;12.60;;
58661;SDS011;44432;49.786;22.760;2023-02-15T06:17:39;25.90;;;13.20;;
58661;SDS011;44432;49.786;22.760;2023-02-15T06:20:12;35.30;;;19.10;;
58661;SDS011;44432;49.786;22.760;2023-02-15T06:22:43;20.30;;;11.90;;
58661;SDS011;44432;49.786;22.760;2023-02-15T06:25:13;25.10;;;16.40;;
58661;SDS011;44432;49.786;22.760;2023-02-15T06:27:44;32.30;;;18.80;;
58661;SDS011;44432;49.786;22.760;2023-02-15T06:30:15;20.10;;;12.90;;
58661;SDS011;44432;49.786;22.760;2023-02-15T06:32:46;18.90;;;11.60;;
58661;SDS011;44432;49.786;22.760;2023-02-15T06:35:17;21.80;;;12.90;;
58661;SDS011;44432;49.786;22.760;2023-02-15T06:37:49;20.50;;;11.90;;
58661;SDS011;44432;49.786;22.760;2023-02-15T06:40:20;17.30;;;10.90;;
58661;SDS011;44432;49.786;22.760;2023-02-15T06:42:50;24.50;;;15.10;;
58661;SDS011;44432;49.786;22.760;2023-02-15T06:45:21;25.70;;;14.00;;
58661;SDS011;44432;49.786;22.760;2023-02-15T06:47:52;39.30;;;19.60;;
58661;SDS011;44432;49.786;22.760;2023-02-15T06:50:22;39.60;;;19.20;;
58661;SDS011;44432;49.786;22.760;2023-02-15T06:52:56;41.30;;;18.60;;
58661;SDS011;44432;49.786;22.760;2023-02-15T06:55:27;30.70;;;16.90;;
58661;SDS011;44432;49.786;22.760;2023-02-15T06:57:58;29.20;;;17.20;;
58661;SDS011;44432;49.786;22.760;2023-02-15T07:00:29;30.90;;;19.50;;
58661;SDS011;44432;49.786;22.760;2023-02-15T07:02:59;48.30;;;15.20;;
58661;SDS011;44432;49.786;22.760;2023-02-15T07:05:32;20.50;;;11.90;;
58661;SDS011;44432;49.786;22.760;2023-02-15T07:08:03;38.50;;;21.90;;
58661;SDS011;44432;49.786;22.760;2023-02-15T07:10:34;32.70;;;16.60;;
58661;SDS011;44432;49.786;22.760;2023-02-15T07:13:07;24.60;;;12.10;;
58661;SDS011;44432;49.786;22.760;2023-02-15T07:15:37;46.50;;;19.40;;
58661;SDS011;44432;49.786;22.760;2023-02-15T07:18:08;34.10;;;15.50;;
58661;SDS011;44432;49.786;22.760;2023-02-15T07:20:39;35.10;;;16.60;;
58661;SDS011;44432;49.786;22.760;2023-02-15T07:23:10;40.70;;;14.80;;
58661;SDS011;44432;49.786;22.760;2023-02-15T07:25:40;43.70;;;16.90;;
58661;SDS011;44432;49.786;22.760;2023-02-15T07:28:11;37.20;;;16.90;;
58661;SDS011;44432;49.786;22.760;2023-02-15T07:30:43;44.40;;;24.30;;
58661;SDS011;44432;49.786;22.760;2023-02-15T07:33:15;46.50;;;20.50;;
58661;SDS011;44432;49.786;22.760;2023-02-15T07:35:51;32.70;;;16.50;;
58661;SDS011;44432;49.786;22.760;2023-02-15T07:38:25;35.20;;;14.70;;
58661;SDS011;44432;49.786;22.760;2023-02-15T07:40:58;27.00;;;11.40;;
58661;SDS011;44432;49.786;22.760;2023-02-15T07:43:32;17.90;;;10.70;;
58661;SDS011;44432;49.786;22.760;2023-02-15T07:46:05;19.60;;;10.50;;
58661;SDS011;44432;49.786;22.760;2023-02-15T07:48:37;20.40;;;10.90;;
58661;SDS011;44432;49.786;22.760;2023-02-15T07:51:09;30.90;;;12.90;;
58661;SDS011;44432;49.786;22.760;2023-02-15T07:53:42;49.40;;;15.00;;
58661;SDS011;44432;49.786;22.760;2023-02-15T07:56:13;23.40;;;12.10;;
58661;SDS011;44432;49.786;22.760;2023-02-15T07:58:44;27.30;;;12.00;;
58661;SDS011;44432;49.786;22.760;2023-02-15T08:01:21;25.80;;;11.30;;
58661;SDS011;44432;49.786;22.760;2023-02-15T08:03:53;22.20;;;12.80;;
58661;SDS011;44432;49.786;22.760;2023-02-15T08:06:25;22.50;;;10.30;;
58661;SDS011;44432;49.786;22.760;2023-02-15T08:08:57;15.50;;;10.00;;
58661;SDS011;44432;49.786;22.760;2023-02-15T08:11:28;16.10;;;10.00;;
58661;SDS011;44432;49.786;22.760;2023-02-15T08:14:08;14.80;;;9.00;;
58661;SDS011;44432;49.786;22.760;2023-02-15T08:16:40;26.60;;;11.70;;
58661;SDS011;44432;49.786;22.760;2023-02-15T08:19:12;31.60;;;14.20;;
58661;SDS011;44432;49.786;22.760;2023-02-15T08:21:44;23.10;;;12.40;;
58661;SDS011;44432;49.786;22.760;2023-02-15T08:24:18;31.70;;;15.60;;
58661;SDS011;44432;49.786;22.760;2023-02-15T08:26:51;32.30;;;12.90;;
58661;SDS011;44432;49.786;22.760;2023-02-15T08:29:23;18.10;;;10.10;;
58661;SDS011;44432;49.786;22.760;2023-02-15T08:31:56;22.10;;;12.40;;
58661;SDS011;44432;49.786;22.760;2023-02-15T08:34:30;35.10;;;14.80;;
58661;SDS011;44432;49.786;22.760;2023-02-15T08:37:03;32.20;;;14.60;;
58661;SDS011;44432;49.786;22.760;2023-02-15T08:39:34;56.50;;;25.10;;
58661;SDS011;44432;49.786;22.760;2023-02-15T08:42:05;38.10;;;15.90;;
58661;SDS011;44432;49.786;22.760;2023-02-15T08:44:35;43.80;;;23.10;;
58661;SDS011;44432;49.786;22.760;2023-02-15T08:47:06;33.10;;;20.70;;
58661;SDS011;44432;49.786;22.760;2023-02-15T08:49:37;35.60;;;20.10;;
58661;SDS011;44432;49.786;22.760;2023-02-15T08:52:07;41.10;;;18.80;;
58661;SDS011;44432;49.786;22.760;2023-02-15T08:54:38;37.90;;;15.90;;
58661;SDS011;44432;49.786;22.760;2023-02-15T08:57:09;46.60;;;18.50;;
58661;SDS011;44432;49.786;22.760;2023-02-15T08:59:39;45.20;;;20.40;;
58661;SDS011;44432;49.786;22.760;2023-02-15T09:02:10;31.40;;;18.40;;
58661;SDS011;44432;49.786;22.760;2023-02-15T09:04:41;29.10;;;14.60;;
58661;SDS011;44432;49.786;22.760;2023-02-15T09:07:12;22.90;;;13.60;;
58661;SDS011;44432;49.786;22.760;2023-02-15T09:09:42;22.20;;;13.40;;
58661;SDS011;44432;49.786;22.760;2023-02-15T09:12:14;21.40;;;10.70;;
58661;SDS011;44432;49.786;22.760;2023-02-15T09:14:45;24.20;;;12.90;;
58661;SDS011;44432;49.786;22.760;2023-02-15T09:17:15;30.50;;;12.50;;
58661;SDS011;44432;49.786;22.760;2023-02-15T09:19:46;31.70;;;12.30;;
58661;SDS011;44432;49.786;22.760;2023-02-15T09:22:17;20.50;;;10.30;;
58661;SDS011;44432;49.786;22.760;2023-02-15T09:24:47;26.10;;;10.90;;
58661;SDS011;44432;49.786;22.760;2023-02-15T09:27:18;23.20;;;10.10;;
58661;SDS011;44432;49.786;22.760;2023-02-15T09:29:49;19.00;;;9.80;;
58661;SDS011;44432;49.786;22.760;2023-02-15T09:32:19;23.60;;;10.30;;
58661;SDS011;44432;49.786;22.760;2023-02-15T09:34:50;37.10;;;13.00;;
58661;SDS011;44432;49.786;22.760;2023-02-15T09:37:21;26.00;;;11.20;;
58661;SDS011;44432;49.786;22.760;2023-02-15T09:39:51;18.60;;;12.70;;
58661;SDS011;44432;49.786;22.760;2023-02-15T09:42:32;17.50;;;10.20;;
58661;SDS011;44432;49.786;22.760;2023-02-15T09:45:31;18.50;;;10.50;;
58661;SDS011;44432;49.786;22.760;2023-02-15T09:48:29;21.40;;;10.40;;
58661;SDS011;44432;49.786;22.760;2023-02-15T09:51:12;21.20;;;11.00;;
58661;SDS011;44432;49.786;22.760;2023-02-15T09:53:55;19.20;;;10.90;;
58661;SDS011;44432;49.786;22.760;2023-02-15T09:56:37;21.70;;;12.40;;
58661;SDS011;44432;49.786;22.760;2023-02-15T09:59:16;26.70;;;14.40;;
58661;SDS011;44432;49.786;22.760;2023-02-15T10:01:58;25.30;;;13.30;;
58661;SDS011;44432;49.786;22.760;2023-02-15T10:04:42;27.00;;;14.20;;
58661;SDS011;44432;49.786;22.760;2023-02-15T10:07:27;23.60;;;12.20;;
58661;SDS011;44432;49.786;22.760;2023-02-15T10:10:11;25.10;;;11.80;;
58661;SDS011;44432;49.786;22.760;2023-02-15T10:13:00;21.00;;;11.80;;
58661;SDS011;44432;49.786;22.760;2023-02-15T10:15:52;23.60;;;12.60;;
58661;SDS011;44432;49.786;22.760;2023-02-15T10:18:37;19.50;;;11.00;;
58661;SDS011;44432;49.786;22.760;2023-02-15T10:21:19;22.80;;;12.10;;
58661;SDS011;44432;49.786;22.760;2023-02-15T10:24:10;26.70;;;11.00;;
58661;SDS011;44432;49.786;22.760;2023-02-15T10:26:48;23.90;;;12.00;;
58661;SDS011;44432;49.786;22.760;2023-02-15T10:29:26;21.80;;;11.10;;
58661;SDS011;44432;49.786;22.760;2023-02-15T10:32:07;20.50;;;11.00;;
58661;SDS011;44432;49.786;22.760;2023-02-15T10:34:47;19.30;;;11.10;;
58661;SDS011;44432;49.786;22.760;2023-02-15T10:37:32;25.20;;;12.90;;
58661;SDS011;44432;49.786;22.760;2023-02-15T10:40:24;21.60;;;12.00;;
58661;SDS011;44432;49.786;22.760;2023-02-15T10:43:06;18.80;;;11.40;;
58661;SDS011;44432;49.786;22.760;2023-02-15T10:45:46;23.00;;;12.60;;
58661;SDS011;44432;49.786;22.760;2023-02-15T10:48:32;18.10;;;11.20;;
58661;SDS011;44432;49.786;22.760;2023-02-15T10:51:14;27.60;;;13.10;;
58661;SDS011;44432;49.786;22.760;2023-02-15T10:53:53;22.30;;;13.10;;
58661;SDS011;44432;49.786;22.760;2023-02-15T10:56:40;34.80;;;14.50;;
58661;SDS011;44432;49.786;22.760;2023-02-15T10:59:28;30.20;;;17.10;;
58661;SDS011;44432;49.786;22.760;2023-02-15T11:02:13;19.50;;;12.80;;
58661;SDS011;44432;49.786;22.760;2023-02-15T11:04:56;34.50;;;14.30;;
58661;SDS011;44432;49.786;22.760;2023-02-15T11:07:45;37.80;;;16.30;;
58661;SDS011;44432;49.786;22.760;2023-02-15T11:12:53;34.80;;;20.00;;
58661;SDS011;44432;49.786;22.760;2023-02-15T11:15:28;41.50;;;20.00;;
58661;SDS011;44432;49.786;22.760;2023-02-15T11:18:05;27.80;;;16.10;;
58661;SDS011;44432;49.786;22.760;2023-02-15T11:20:43;25.60;;;15.30;;
58661;SDS011;44432;49.786;22.760;2023-02-15T11:23:18;26.60;;;15.60;;
58661;SDS011;44432;49.786;22.760;2023-02-15T11:25:54;23.10;;;14.40;;
58661;SDS011;44432;49.786;22.760;2023-02-15T11:28:29;26.10;;;14.60;;
58661;SDS011;44432;49.786;22.760;2023-02-15T11:31:11;24.00;;;13.80;;
58661;SDS011;44432;49.786;22.760;2023-02-15T11:33:46;22.50;;;14.30;;
58661;SDS011;44432;49.786;22.760;2023-02-15T11:36:22;27.70;;;14.70;;
58661;SDS011;44432;49.786;22.760;2023-02-15T11:38:58;29.30;;;15.90;;
58661;SDS011;44432;49.786;22.760;2023-02-15T11:41:33;27.90;;;15.50;;
58661;SDS011;44432;49.786;22.760;2023-02-15T11:44:10;27.70;;;16.50;;
58661;SDS011;44432;49.786;22.760;2023-02-15T11:46:44;29.60;;;17.10;;
58661;SDS011;44432;49.786;22.760;2023-02-15T11:49:19;33.10;;;16.40;;
58661;SDS011;44432;49.786;22.760;2023-02-15T11:51:53;22.80;;;14.20;;
58661;SDS011;44432;49.786;22.760;2023-02-15T11:54:27;27.20;;;14.70;;
58661;SDS011;44432;49.786;22.760;2023-02-15T11:57:01;27.20;;;14.90;;
58661;SDS011;44432;49.786;22.760;2023-02-15T11:59:40;28.70;;;15.10;;
58661;SDS011;44432;49.786;22.760;2023-02-15T12:02:16;45.80;;;15.60;;
58661;SDS011;44432;49.786;22.760;2023-02-15T12:04:51;32.60;;;16.10;;
58661;SDS011;44432;49.786;22.760;2023-02-15T12:07:25;18.80;;;12.70;;
58661;SDS011;44432;49.786;22.760;2023-02-15T12:10:02;39.30;;;17.30;;
58661;SDS011;44432;49.786;22.760;2023-02-15T12:12:39;19.90;;;11.90;;
58661;SDS011;44432;49.786;22.760;2023-02-15T12:15:11;23.10;;;12.30;;
58661;SDS011;44432;49.786;22.760;2023-02-15T12:17:51;22.30;;;12.40;;
58661;SDS011;44432;49.786;22.760;2023-02-15T12:20:24;19.90;;;12.40;;
58661;SDS011;44432;49.786;22.760;2023-02-15T12:23:00;25.30;;;13.40;;
58661;SDS011;44432;49.786;22.760;2023-02-15T12:25:36;24.60;;;14.80;;
58661;SDS011;44432;49.786;22.760;2023-02-15T12:28:19;22.10;;;14.00;;
58661;SDS011;44432;49.786;22.760;2023-02-15T12:30:55;25.40;;;14.20;;
58661;SDS011;44432;49.786;22.760;2023-02-15T12:33:28;30.10;;;16.40;;
58661;SDS011;44432;49.786;22.760;2023-02-15T12:36:03;24.20;;;13.30;;
58661;SDS011;44432;49.786;22.760;2023-02-15T12:38:41;26.80;;;13.60;;
58661;SDS011;44432;49.786;22.760;2023-02-15T12:41:23;24.00;;;12.70;;
58661;SDS011;44432;49.786;22.760;2023-02-15T12:44:04;18.70;;;11.10;;
58661;SDS011;44432;49.786;22.760;2023-02-15T12:46:43;22.70;;;12.50;;
58661;SDS011;44432;49.786;22.760;2023-02-15T12:49:27;18.40;;;10.40;;
58661;SDS011;44432;49.786;22.760;2023-02-15T12:51:59;18.90;;;10.60;;
58661;SDS011;44432;49.786;22.760;2023-02-15T12:57:20;19.70;;;10.50;;
58661;SDS011;44432;49.786;22.760;2023-02-15T12:59:55;17.00;;;9.40;;
58661;SDS011;44432;49.786;22.760;2023-02-15T13:02:27;21.70;;;11.60;;
58661;SDS011;44432;49.786;22.760;2023-02-15T13:05:13;18.40;;;11.10;;
58661;SDS011;44432;49.786;22.760;2023-02-15T13:07:50;21.10;;;10.90;;
58661;SDS011;44432;49.786;22.760;2023-02-15T13:10:25;19.00;;;11.20;;
58661;SDS011;44432;49.786;22.760;2023-02-15T13:12:57;17.50;;;9.70;;
58661;SDS011;44432;49.786;22.760;2023-02-15T13:15:32;16.80;;;9.80;;
58661;SDS011;44432;49.786;22.760;2023-02-15T13:18:10;27.60;;;10.20;;
58661;SDS011;44432;49.786;22.760;2023-02-15T13:20:43;14.70;;;8.60;;
58661;SDS011;44432;49.786;22.760;2023-02-15T13:23:20;20.80;;;9.00;;
58661;SDS011;44432;49.786;22.760;2023-02-15T13:25:57;17.30;;;8.80;;
58661;SDS011;44432;49.786;22.760;2023-02-15T13:28:35;17.90;;;8.20;;
58661;SDS011;44432;49.786;22.760;2023-02-15T13:31:12;21.50;;;9.20;;
58661;SDS011;44432;49.786;22.760;2023-02-15T13:33:45;17.60;;;9.10;;
58661;SDS011;44432;49.786;22.760;2023-02-15T13:36:21;16.00;;;8.90;;
58661;SDS011;44432;49.786;22.760;2023-02-15T13:39:03;14.70;;;9.20;;
58661;SDS011;44432;49.786;22.760;2023-02-15T13:41:45;19.50;;;10.00;;
58661;SDS011;44432;49.786;22.760;2023-02-15T13:44:24;24.40;;;10.90;;
58661;SDS011;44432;49.786;22.760;2023-02-15T13:47:17;33.90;;;15.90;;
58661;SDS011;44432;49.786;22.760;2023-02-15T13:50:01;23.30;;;10.40;;
58661;SDS011;44432;49.786;22.760;2023-02-15T13:52:41;21.10;;;10.20;;
58661;SDS011;44432;49.786;22.760;2023-02-15T13:55:25;17.50;;;7.90;;
58661;SDS011;44432;49.786;22.760;2023-02-15T14:01:13;37.10;;;21.10;;
58661;SDS011;44432;49.786;22.760;2023-02-15T14:03:51;18.30;;;11.30;;
58661;SDS011;44432;49.786;22.760;2023-02-15T14:06:41;24.80;;;13.90;;
58661;SDS011;44432;49.786;22.760;2023-02-15T14:09:23;19.70;;;9.30;;
58661;SDS011;44432;49.786;22.760;2023-02-15T14:12:16;17.50;;;9.50;;
58661;SDS011;44432;49.786;22.760;2023-02-15T14:15:06;15.70;;;8.80;;
58661;SDS011;44432;49.786;22.760;2023-02-15T14:17:46;28.00;;;10.20;;
58661;SDS011;44432;49.786;22.760;2023-02-15T14:20:32;21.20;;;9.30;;
58661;SDS011;44432;49.786;22.760;2023-02-15T14:23:16;18.30;;;10.60;;
58661;SDS011;44432;49.786;22.760;2023-02-15T14:25:59;17.60;;;9.10;;
58661;SDS011;44432;49.786;22.760;2023-02-15T14:28:36;16.70;;;9.60;;
58661;SDS011;44432;49.786;22.760;2023-02-15T14:31:12;19.50;;;10.50;;
58661;SDS011;44432;49.786;22.760;2023-02-15T14:33:47;21.00;;;12.60;;
58661;SDS011;44432;49.786;22.760;2023-02-15T14:36:23;20.10;;;11.40;;
58661;SDS011;44432;49.786;22.760;2023-02-15T14:39:06;17.80;;;10.60;;
58661;SDS011;44432;49.786;22.760;2023-02-15T14:42:03;13.50;;;9.00;;
58661;SDS011;44432;49.786;22.760;2023-02-15T14:44:40;19.50;;;10.60;;
58661;SDS011;44432;49.786;22.760;2023-02-15T14:47:18;26.00;;;10.90;;
58661;SDS011;44432;49.786;22.760;2023-02-15T14:49:55;20.30;;;11.60;;
58661;SDS011;44432;49.786;22.760;2023-02-15T14:52:26;18.20;;;11.20;;
58661;SDS011;44432;49.786;22.760;2023-02-15T14:54:57;18.90;;;11.20;;
58661;SDS011;44432;49.786;22.760;2023-02-15T14:57:35;18.70;;;10.50;;
58661;SDS011;44432;49.786;22.760;2023-02-15T15:03:03;21.00;;;11.00;;
58661;SDS011;44432;49.786;22.760;2023-02-15T15:05:49;24.50;;;11.90;;
58661;SDS011;44432;49.786;22.760;2023-02-15T15:08:25;22.60;;;13.10;;
58661;SDS011;44432;49.786;22.760;2023-02-15T15:14:08;26.20;;;15.40;;
58661;SDS011;44432;49.786;22.760;2023-02-15T15:16:50;31.40;;;17.80;;
58661;SDS011;44432;49.786;22.760;2023-02-15T15:22:35;32.10;;;18.20;;
58661;SDS011;44432;49.786;22.760;2023-02-15T15:25:08;44.80;;;20.20;;